createdAt,value
2022-10-02T00:03:00.983Z,97655.60
2022-10-02T00:06:13.753Z,97659.63
2022-10-02T00:09:29.072Z,97661.59
2022-10-02T00:12:36.015Z,97664.25
2022-10-02T00:15:42.158Z,97667.33
2022-10-02T00:18:47.442Z,97671.34
2022-10-02T00:22:21.990Z,97671.65
2022-10-02T00:25:57.769Z,97675.05
2022-10-02T00:29:15.328Z,97679.44
2022-10-02T00:32:46.068Z,97684.48
2022-10-02T00:36:16.043Z,97686.05
2022-10-02T00:39:21.615Z,97688.88
2022-10-02T00:42:38.151Z,97690.20
2022-10-02T00:46:02.573Z,97691.38
2022-10-02T00:49:48.008Z,97690.11
2022-10-02T00:53:12.283Z,97692.79
2022-10-02T00:56:28.832Z,97696.15
2022-10-02T00:59:57.225Z,97698.98
2022-10-02T01:03:17.762Z,97697.40
2022-10-02T01:06:25.751Z,97697.78
2022-10-02T01:09:28.990Z,97701.02
2022-10-02T01:12:31.950Z,97705.73
2022-10-02T01:15:38.544Z,97703.85
2022-10-02T01:18:42.878Z,97710.27
2022-10-02T01:21:52.894Z,97714.77
2022-10-02T01:25:04.351Z,97714.05
2022-10-02T01:28:07.532Z,97713.73
2022-10-02T01:31:13.514Z,97720.42
2022-10-02T01:34:16.871Z,97723.80
2022-10-02T01:37:26.300Z,97726.86
2022-10-02T01:40:34.901Z,97731.03
2022-10-02T01:43:42.962Z,97735.98
2022-10-02T01:47:07.879Z,97738.20
2022-10-02T01:50:24.393Z,97742.19
2022-10-02T01:53:40.865Z,97746.64
2022-10-02T01:56:55.553Z,97753.06
2022-10-02T02:00:16.161Z,97755.58
2022-10-02T02:03:24.172Z,97761.48
2022-10-02T02:06:50.097Z,97763.05
2022-10-02T02:10:17.772Z,97765.63
2022-10-02T02:13:29.309Z,97773.73
2022-10-02T02:16:40.454Z,97776.90
2022-10-02T02:19:50.385Z,97780.14
2022-10-02T02:22:56.631Z,97777.70
2022-10-02T02:26:04.631Z,97779.41
2022-10-02T02:29:09.788Z,97783.19
2022-10-02T02:32:18.958Z,97783.48
2022-10-02T02:35:33.267Z,97783.25
2022-10-02T02:38:40.946Z,97786.31
2022-10-02T02:41:50.895Z,97785.50
2022-10-02T02:44:59.832Z,97790.63
2022-10-02T02:48:09.880Z,97793.21
2022-10-02T02:51:21.101Z,97795.98
2022-10-02T02:54:31.170Z,97795.41
2022-10-02T02:57:53.502Z,97799.10
2022-10-02T03:00:56.497Z,97795.23
2022-10-02T03:03:59.502Z,97802.02
2022-10-02T03:07:05.129Z,97802.70
2022-10-02T03:10:25.156Z,97805.61
2022-10-02T03:13:36.860Z,97806.95
2022-10-02T03:17:00.285Z,97808.83
2022-10-02T03:20:11.991Z,97815.13
2022-10-02T03:23:25.139Z,97817.30
2022-10-02T03:26:41.153Z,97819.33
2022-10-02T03:29:51.462Z,97822.53
2022-10-02T03:32:56.420Z,97824.49
2022-10-02T03:36:00.112Z,97828.42
2022-10-02T03:39:25.125Z,97827.64
2022-10-02T03:42:33.189Z,97832.61
2022-10-02T03:45:52.146Z,97832.61
2022-10-02T03:48:56.672Z,97836.48
2022-10-02T03:51:59.664Z,97841.20
2022-10-02T03:55:13.926Z,97843.72
2022-10-02T03:58:18.447Z,97850.41
2022-10-02T04:01:27.771Z,97850.95
2022-10-02T04:04:56.393Z,97853.95
2022-10-02T04:08:15.593Z,97858.52
2022-10-02T04:11:29.981Z,97865.13
2022-10-02T04:14:39.369Z,97870.34
2022-10-02T04:17:58.745Z,97878.38
2022-10-02T04:21:11.163Z,97880.73
2022-10-02T04:24:29.508Z,97881.27
2022-10-02T04:27:50.602Z,97886.48
2022-10-02T04:30:54.066Z,97889.78
2022-10-02T04:34:02.867Z,97894.67
2022-10-02T04:37:17.859Z,97899.78
2022-10-02T04:40:54.928Z,97904.58
2022-10-02T04:44:10.787Z,97904.21
2022-10-02T04:47:37.563Z,97918.52
2022-10-02T04:50:56.254Z,97920.89
2022-10-02T04:54:13.387Z,97925.92
2022-10-02T04:57:28.196Z,97927.16
2022-10-02T05:00:42.743Z,97931.91
2022-10-02T05:04:25.507Z,97940.17
2022-10-02T05:07:41.437Z,97937.10
2022-10-02T05:11:04.979Z,97939.70
2022-10-02T05:14:38.475Z,97943.06
2022-10-02T05:17:57.758Z,97947.95
2022-10-02T05:21:21.494Z,97951.95
2022-10-02T05:24:46.703Z,97953.69
2022-10-02T05:28:16.806Z,97951.02
2022-10-02T05:31:48.370Z,97957.30
2022-10-02T05:35:20.264Z,97956.58
2022-10-02T05:39:02.896Z,97959.17
2022-10-02T05:42:21.738Z,97969.63
2022-10-02T05:45:33.837Z,97968.60
2022-10-02T05:48:46.421Z,97969.95
2022-10-02T05:51:59.688Z,97972.08
2022-10-02T05:55:06.606Z,97972.45
2022-10-02T05:58:31.490Z,97975.98
2022-10-02T06:01:39.986Z,97979.11
2022-10-02T06:04:53.607Z,97980.14
2022-10-02T06:08:02.677Z,97983.21
2022-10-02T06:11:11.977Z,97987.29
2022-10-02T06:14:23.725Z,97992.49
2022-10-02T06:17:33.901Z,97996.63
2022-10-02T06:20:43.732Z,98002.38
2022-10-02T06:23:52.220Z,98004.27
2022-10-02T06:27:04.668Z,98008.81
2022-10-02T06:30:12.921Z,98010.05
2022-10-02T06:33:28.307Z,98010.18
2022-10-02T06:36:48.129Z,98010.15
2022-10-02T06:40:18.824Z,98010.35
2022-10-02T06:43:35.427Z,98015.74
2022-10-02T06:46:51.258Z,98019.87
2022-10-02T06:50:12.933Z,98019.82
2022-10-02T06:53:22.187Z,98021.58
2022-10-02T06:56:34.199Z,98028.39
2022-10-02T06:59:51.884Z,98031.64
2022-10-02T07:03:06.786Z,98031.33
2022-10-02T07:06:22.972Z,98032.02
2022-10-02T07:09:55.034Z,98034.84
2022-10-02T07:13:12.376Z,98035.52
2022-10-02T07:16:58.507Z,98039.33
2022-10-02T07:20:33.248Z,98043.10
2022-10-02T07:23:45.180Z,98047.33
2022-10-02T07:27:07.280Z,98048.92
2022-10-02T07:30:17.866Z,98051.33
2022-10-02T07:33:35.778Z,98050.47
2022-10-02T07:36:44.619Z,98054.01
2022-10-02T07:40:10.410Z,98058.42
2022-10-02T07:43:25.017Z,98059.60
2022-10-02T07:46:46.602Z,98059.98
2022-10-02T07:50:12.595Z,98055.77
2022-10-02T07:53:21.320Z,98055.97
2022-10-02T07:56:25.664Z,98057.05
2022-10-02T07:59:31.099Z,98057.52
2022-10-02T08:02:43.240Z,98060.73
2022-10-02T08:05:49.706Z,98062.09
2022-10-02T08:08:57.043Z,98064.29
2022-10-02T08:12:09.409Z,98061.27
2022-10-02T08:15:15.807Z,98046.23
2022-10-02T08:18:34.773Z,98045.40
2022-10-02T08:21:46.934Z,98045.62
2022-10-02T08:24:57.609Z,98044.18
2022-10-02T08:28:12.200Z,98043.08
2022-10-02T08:31:16.107Z,98049.78
2022-10-02T08:34:22.160Z,98046.52
2022-10-02T08:37:37.343Z,98049.27
2022-10-02T08:40:56.084Z,98043.02
2022-10-02T08:44:36.608Z,98046.62
2022-10-02T08:48:06.375Z,98046.43
2022-10-02T08:51:28.143Z,98043.44
2022-10-02T08:54:50.557Z,98042.55
2022-10-02T08:58:24.143Z,98039.13
2022-10-02T09:01:27.316Z,98037.13
2022-10-02T09:05:04.226Z,98033.42
2022-10-02T09:08:13.597Z,98028.83
2022-10-02T09:11:59.263Z,98022.77
2022-10-02T09:15:16.029Z,98019.37
2022-10-02T09:18:40.533Z,98008.33
2022-10-02T09:21:56.248Z,98005.11
2022-10-02T09:25:24.074Z,98008.63
2022-10-02T09:28:36.719Z,98006.30
2022-10-02T09:32:11.397Z,98004.64
2022-10-02T09:35:38.554Z,98001.98
2022-10-02T09:39:25.161Z,98003.14
2022-10-02T09:42:43.563Z,98001.65
2022-10-02T09:46:16.248Z,98003.92
2022-10-02T09:49:44.438Z,98001.55
2022-10-02T09:53:05.831Z,97998.41
2022-10-02T09:56:18.880Z,98003.76
2022-10-02T10:00:07.611Z,98004.23
2022-10-02T10:03:50.582Z,98005.04
2022-10-02T10:07:19.202Z,98000.66
2022-10-02T10:10:55.404Z,98000.23
2022-10-02T10:14:27.903Z,97993.41
2022-10-02T10:18:08.756Z,97989.52
2022-10-02T10:21:51.645Z,97991.94
2022-10-02T10:25:05.614Z,97991.02
2022-10-02T10:28:34.238Z,97994.16
2022-10-02T10:37:17.473Z,97985.63
2022-10-02T10:40:38.552Z,97979.77
2022-10-02T10:47:38.684Z,97966.60
2022-10-02T10:51:31.718Z,97968.77
2022-10-02T10:54:49.023Z,97978.11
2022-10-02T10:58:07.147Z,97976.88
2022-10-02T11:01:21.629Z,97985.63
2022-10-02T11:04:53.389Z,97984.59
2022-10-02T11:08:43.315Z,97981.25
2022-10-02T11:12:04.230Z,97979.77
2022-10-02T11:15:45.836Z,97973.34
2022-10-02T11:19:21.658Z,97968.27
2022-10-02T11:22:37.987Z,97961.39
2022-10-02T11:26:05.858Z,97958.91
2022-10-02T11:29:27.945Z,97959.77
2022-10-02T11:32:34.098Z,97963.54
2022-10-02T11:36:01.775Z,97961.96
2022-10-02T11:39:52.468Z,97956.15
2022-10-02T11:47:37.090Z,97936.95
2022-10-02T11:52:18.919Z,97933.92
2022-10-02T11:55:43.180Z,97931.98
2022-10-02T11:59:19.269Z,97926.90
2022-10-02T12:02:37.437Z,97919.27
2022-10-02T12:05:55.622Z,97918.91
2022-10-02T12:09:41.746Z,97922.56
2022-10-02T12:13:27.005Z,97925.21
2022-10-02T12:16:51.136Z,97919.61
2022-10-02T12:20:37.798Z,97922.02
2022-10-02T12:24:22.905Z,97917.59
2022-10-02T12:27:44.427Z,97916.52
2022-10-02T12:31:01.910Z,97908.15
2022-10-02T12:34:14.903Z,97904.89
2022-10-02T12:37:51.528Z,97905.33
2022-10-02T12:41:10.042Z,97903.05
2022-10-02T12:44:43.067Z,97902.48
2022-10-02T12:48:10.059Z,97898.59
2022-10-02T12:51:38.141Z,97898.71
2022-10-02T12:55:13.691Z,97906.34
2022-10-02T12:58:24.327Z,97915.55
2022-10-02T13:01:38.065Z,97917.57
2022-10-02T13:05:22.495Z,97911.88
2022-10-02T13:08:37.314Z,97902.65
2022-10-02T13:12:05.585Z,97878.44
2022-10-02T13:15:39.183Z,97867.29
2022-10-02T13:18:52.240Z,97860.16
2022-10-02T13:22:02.543Z,97864.30
2022-10-02T13:25:39.780Z,97865.83
2022-10-02T13:29:03.122Z,97861.39
2022-10-02T13:32:20.632Z,97867.21
2022-10-02T13:35:34.554Z,97869.98
2022-10-02T13:38:44.978Z,97855.10
2022-10-02T13:42:18.980Z,97856.86
2022-10-02T13:45:29.169Z,97853.30
2022-10-02T13:48:33.795Z,97851.64
2022-10-02T13:52:12.076Z,97850.91
2022-10-02T13:55:29.208Z,97850.86
2022-10-02T13:58:55.917Z,97846.27
2022-10-02T14:02:12.705Z,97835.27
2022-10-02T14:05:23.958Z,97840.30
2022-10-02T14:09:02.449Z,97836.80
2022-10-02T14:12:31.961Z,97839.36
2022-10-02T14:15:45.650Z,97837.70
2022-10-02T14:19:07.496Z,97837.94
2022-10-02T14:22:18.190Z,97840.27
2022-10-02T14:25:42.279Z,97837.95
2022-10-02T14:28:50.669Z,97837.37
2022-10-02T14:32:27.325Z,97833.46
2022-10-02T14:35:47.271Z,97834.54
2022-10-02T14:39:09.005Z,97838.84
2022-10-02T14:42:22.439Z,97844.76
2022-10-02T14:45:58.228Z,97857.42
2022-10-02T14:49:26.819Z,97873.63
2022-10-02T14:52:48.237Z,97873.82
2022-10-02T14:55:49.722Z,97874.79
2022-10-02T14:59:09.563Z,97890.96
2022-10-02T15:02:19.817Z,97900.61
2022-10-02T15:05:30.922Z,97903.75
2022-10-02T15:09:11.000Z,97906.11
2022-10-02T15:12:19.009Z,97898.70
2022-10-02T15:16:14.819Z,97903.79
2022-10-02T15:19:34.650Z,97875.83
2022-10-02T15:22:47.731Z,97863.76
2022-10-02T15:26:22.367Z,97857.58
2022-10-02T15:29:33.788Z,97872.82
2022-10-02T15:33:11.313Z,97866.65
2022-10-02T15:36:26.191Z,97848.29
2022-10-02T15:39:46.868Z,97840.08
2022-10-02T15:43:23.857Z,97841.71
2022-10-02T15:46:53.919Z,97839.19
2022-10-02T15:50:26.368Z,97839.02
2022-10-02T15:53:36.981Z,97834.92
2022-10-02T15:56:57.464Z,97836.63
2022-10-02T16:00:11.891Z,97835.14
2022-10-02T16:03:21.871Z,97836.83
2022-10-02T16:06:53.790Z,97834.83
2022-10-02T16:10:13.050Z,97829.81
2022-10-02T16:13:25.053Z,97827.23
2022-10-02T16:16:33.713Z,97827.84
2022-10-02T16:19:47.517Z,97822.90
2022-10-02T16:22:49.005Z,97819.38
2022-10-02T16:26:37.308Z,97821.29
2022-10-02T16:30:13.928Z,97824.25
2022-10-02T16:33:47.166Z,97824.10
2022-10-02T16:37:00.978Z,97826.19
2022-10-02T16:40:40.272Z,97827.23
2022-10-02T16:43:42.951Z,97822.85
2022-10-02T16:46:51.533Z,97823.80
2022-10-02T16:50:01.896Z,97825.58
2022-10-02T16:53:32.703Z,97828.02
2022-10-02T16:56:50.567Z,97822.78
2022-10-02T17:00:29.583Z,97820.02
2022-10-02T17:03:36.170Z,97815.70
2022-10-02T17:06:53.604Z,97811.02
2022-10-02T17:10:07.034Z,97800.14
2022-10-02T17:13:47.399Z,97798.67
2022-10-02T17:17:22.981Z,97800.52
2022-10-02T17:20:54.198Z,97800.89
2022-10-02T17:24:49.098Z,97806.30
2022-10-02T17:28:57.077Z,97805.15
2022-10-02T17:32:00.967Z,97804.34
2022-10-02T17:35:28.341Z,97809.47
2022-10-02T17:39:12.637Z,97813.67
2022-10-02T17:42:27.737Z,97819.04
2022-10-02T17:45:45.135Z,97824.48
2022-10-02T17:49:00.534Z,97837.33
2022-10-02T17:52:42.403Z,97857.80
2022-10-02T17:56:36.324Z,97873.35
2022-10-02T18:00:02.841Z,97874.70
2022-10-02T18:03:38.564Z,97856.23
2022-10-02T18:07:12.968Z,97849.05
2022-10-02T18:10:40.618Z,97861.97
2022-10-02T18:14:23.762Z,97874.87
2022-10-02T18:17:54.952Z,97868.39
2022-10-02T18:21:16.034Z,97870.74
2022-10-02T18:24:41.390Z,97872.63
2022-10-02T18:28:09.304Z,97869.70
2022-10-02T18:31:54.782Z,97865.91
2022-10-02T18:35:38.487Z,97857.67
2022-10-02T18:43:59.190Z,97867.61
2022-10-02T18:47:21.810Z,97864.70
2022-10-02T18:50:30.013Z,97871.59
2022-10-02T18:54:32.959Z,97868.25
2022-10-02T18:58:21.337Z,97874.90
2022-10-02T19:02:06.070Z,97878.10
2022-10-02T19:05:45.616Z,97881.47
2022-10-02T19:09:09.255Z,97890.02
2022-10-02T19:12:14.910Z,97894.29
2022-10-02T19:15:28.760Z,97888.01
2022-10-02T19:18:32.748Z,97893.22
2022-10-02T19:21:36.743Z,97891.28
2022-10-02T19:24:46.259Z,97891.92
2022-10-02T19:27:54.881Z,97887.84
2022-10-02T19:31:03.190Z,97895.42
2022-10-02T19:34:16.767Z,97899.72
2022-10-02T19:37:18.832Z,97906.06
2022-10-02T19:40:27.015Z,97907.09
2022-10-02T19:43:34.201Z,97913.11
2022-10-02T19:46:40.517Z,97913.20
2022-10-02T19:49:46.851Z,97913.14
2022-10-02T19:52:58.280Z,97912.21
2022-10-02T19:56:06.057Z,97911.43
2022-10-02T19:59:26.926Z,97910.13
2022-10-02T20:02:37.884Z,97909.27
2022-10-02T20:05:41.438Z,97909.46
2022-10-02T20:09:00.590Z,97905.92
2022-10-02T20:12:16.607Z,97906.34
2022-10-02T20:15:45.228Z,97909.45
2022-10-02T20:18:50.201Z,97908.61
2022-10-02T20:21:57.454Z,97912.25
2022-10-02T20:25:17.637Z,97914.88
2022-10-02T20:28:45.296Z,97920.11
2022-10-02T20:31:54.113Z,97915.57
2022-10-02T20:35:05.911Z,97917.31
2022-10-02T20:38:19.414Z,97924.41
2022-10-02T20:41:26.667Z,97922.69
2022-10-02T20:44:32.586Z,97929.31
2022-10-02T20:47:49.457Z,97925.05
2022-10-02T20:51:13.304Z,97927.02
2022-10-02T20:54:14.794Z,97921.35
2022-10-02T20:58:04.680Z,97928.98
2022-10-02T21:01:33.288Z,97931.02
2022-10-02T21:04:49.036Z,97926.21
2022-10-02T21:08:25.632Z,97929.75
2022-10-02T21:11:38.737Z,97928.39
2022-10-02T21:15:09.559Z,97927.06
2022-10-02T21:18:47.484Z,97930.83
2022-10-02T21:22:23.117Z,97927.84
2022-10-02T21:25:42.944Z,97932.41
2022-10-02T21:28:59.318Z,97940.23
2022-10-02T21:32:32.674Z,97937.11
2022-10-02T21:35:40.561Z,97936.55
2022-10-02T21:38:56.935Z,97935.29
2022-10-02T21:42:33.933Z,97936.96
2022-10-02T21:45:56.892Z,97941.70
2022-10-02T21:49:00.912Z,97943.06
2022-10-02T21:52:14.424Z,97943.45
2022-10-02T21:55:40.561Z,97947.33
2022-10-02T21:59:19.392Z,97949.46
2022-10-02T22:02:39.183Z,97958.02
2022-10-02T22:06:04.536Z,97962.53
2022-10-02T22:09:09.853Z,97963.84
2022-10-02T22:12:22.570Z,97960.23
2022-10-02T22:15:50.491Z,97961.55
2022-10-02T22:19:01.129Z,97963.61
2022-10-02T22:22:29.412Z,97967.95
2022-10-02T22:25:33.733Z,97959.30
2022-10-02T22:28:44.400Z,97966.16
2022-10-02T22:32:44.494Z,97967.53
2022-10-02T22:36:00.996Z,97968.89
2022-10-02T22:39:16.087Z,97972.91
2022-10-02T22:42:40.889Z,97977.46
2022-10-02T22:45:50.119Z,97974.97
2022-10-02T22:49:14.565Z,97973.08
2022-10-02T22:52:37.225Z,97974.26
2022-10-02T22:55:48.166Z,97975.67
2022-10-02T22:59:12.426Z,97974.41
2022-10-02T23:02:25.321Z,97981.26
2022-10-02T23:05:41.239Z,97979.05
2022-10-02T23:09:06.400Z,97979.61
2022-10-02T23:12:38.152Z,97982.52
2022-10-02T23:15:50.709Z,97989.47
2022-10-02T23:19:02.979Z,97988.30
2022-10-02T23:22:17.139Z,97990.52
2022-10-02T23:25:34.222Z,97991.55
2022-10-02T23:29:11.607Z,97993.98
2022-10-02T23:32:16.758Z,97995.02
2022-10-02T23:35:33.231Z,97993.05
2022-10-02T23:38:46.238Z,97998.55
2022-10-02T23:41:53.564Z,98000.63
2022-10-02T23:45:10.403Z,98004.87
2022-10-02T23:48:13.829Z,98001.80
2022-10-02T23:51:27.355Z,98004.88
2022-10-02T23:54:51.921Z,98002.99
2022-10-02T23:58:13.197Z,98002.20
